Time;durP1;ratioP1;P1;durP2;ratioP2;P2;SDS_P1;SDS_P2;PMS_P1;PMS_P2;Temp;Humidity;BMP_temperature;BMP_pressure;BME280_temperature;BME280_humidity;BME280_pressure;Samples;Min_cycle;Max_cycle;Signal;HPM_P1;HPM_P2
2022/01/07 16:01:17;;;;;;;0.40;0.40;;;1.60;90.30;;;;;;5068863;28;20473;-74
2022/01/07 16:03:43;;;;;;;0.70;0.70;;;1.30;90.80;;;;;;5067764;28;20036;-74
2022/01/07 16:06:11;;;;;;;0.57;0.57;;;1.40;90.90;;;;;;5067545;28;20112;-73
2022/01/07 16:08:37;;;;;;;0.40;0.40;;;1.50;90.40;;;;;;5068872;28;20098;-73
2022/01/07 16:11:03;;;;;;;0.50;0.50;;;1.50;90.50;;;;;;5061389;28;20029;-74
2022/01/07 16:13:29;;;;;;;4.80;1.48;;;1.70;90.20;;;;;;5087917;28;20506;-73
2022/01/07 16:15:55;;;;;;;0.40;0.40;;;1.70;90.30;;;;;;5088820;28;20097;-73
2022/01/07 16:18:21;;;;;;;0.60;0.60;;;1.70;90.40;;;;;;5089079;28;20017;-73
2022/01/07 16:20:46;;;;;;;0.70;0.70;;;1.90;90.60;;;;;;5087347;28;20024;-74
2022/01/07 16:23:12;;;;;;;0.40;0.40;;;2.00;89.20;;;;;;5069440;28;20376;-74
2022/01/07 16:25:40;;;;;;;4.57;0.93;;;1.80;89.60;;;;;;5052025;28;20021;-73
2022/01/07 16:28:07;;;;;;;0.40;0.40;;;1.80;89.90;;;;;;5066293;28;20029;-73
2022/01/07 16:30:34;;;;;;;0.93;0.93;;;1.80;90.20;;;;;;5065589;28;20384;-74
2022/01/07 16:33:00;;;;;;;0.40;0.40;;;1.80;90.20;;;;;;5047302;28;20017;-74
2022/01/07 16:35:26;;;;;;;0.85;0.85;;;1.70;89.80;;;;;;5047104;28;20027;-74
2022/01/07 16:37:52;;;;;;;1.08;0.55;;;1.80;90.00;;;;;;5046698;28;20025;-74
2022/01/07 16:40:19;;;;;;;0.40;0.40;;;1.80;90.00;;;;;;5061083;28;20025;-74
2022/01/07 16:42:45;;;;;;;1.23;1.17;;;1.80;90.00;;;;;;5068243;28;20032;-74
2022/01/07 16:45:12;;;;;;;0.90;0.90;;;1.60;90.10;;;;;;5067010;28;20017;-74
2022/01/07 16:47:39;;;;;;;0.40;0.40;;;1.60;90.10;;;;;;5067747;28;20253;-74
2022/01/07 16:50:05;;;;;;;4.85;1.55;;;1.80;89.80;;;;;;5066931;28;20480;-74
2022/01/07 16:52:31;;;;;;;0.30;0.30;;;2.00;89.70;;;;;;5074521;28;20407;-73
2022/01/07 16:54:58;;;;;;;5.25;1.77;;;2.10;89.20;;;;;;5068273;28;20020;-73
2022/01/07 16:57:24;;;;;;;0.30;0.30;;;1.90;88.60;;;;;;5067866;28;20032;-74
2022/01/07 16:59:51;;;;;;;0.40;0.40;;;1.90;90.30;;;;;;5049756;28;20540;-74
2022/01/07 17:02:17;;;;;;;0.60;0.60;;;1.90;90.30;;;;;;5067729;28;20043;-74
2022/01/07 17:04:43;;;;;;;0.95;0.90;;;2.00;90.70;;;;;;5066406;28;20025;-74
2022/01/07 17:07:08;;;;;;;0.30;0.30;;;1.90;91.30;;;;;;5067779;28;20370;-74
2022/01/07 17:09:34;;;;;;;2.83;0.65;;;1.90;92.20;;;;;;5083535;28;20392;-74
2022/01/07 17:12:00;;;;;;;0.40;0.40;;;1.90;92.50;;;;;;5077009;28;20036;-73
2022/01/07 17:14:28;;;;;;;0.30;0.30;;;1.90;92.90;;;;;;5074784;28;20036;-74
2022/01/07 17:16:54;;;;;;;0.60;0.60;;;1.70;93.50;;;;;;5074439;28;20024;-74
2022/01/07 17:19:20;;;;;;;0.50;0.50;;;1.50;95.30;;;;;;5074498;28;20383;-73
2022/01/07 17:21:46;;;;;;;0.50;0.50;;;1.30;96.30;;;;;;5074468;28;20025;-74
2022/01/07 17:24:12;;;;;;;0.40;0.40;;;1.50;98.20;;;;;;5073531;28;20428;-73
2022/01/07 17:26:38;;;;;;;0.38;0.38;;;1.60;98.50;;;;;;5056301;28;20086;-73
2022/01/07 17:29:04;;;;;;;0.40;0.40;;;1.60;99.50;;;;;;5054191;28;20420;-73
2022/01/07 17:31:30;;;;;;;0.30;0.30;;;1.40;99.90;;;;;;5054275;28;20167;-73
2022/01/07 17:33:55;;;;;;;2.28;1.42;;;1.40;99.90;;;;;;5056147;28;20107;-73
2022/01/07 17:36:22;;;;;;;0.57;0.50;;;1.30;99.90;;;;;;5059894;28;20044;-73
2022/01/07 17:38:47;;;;;;;1.55;0.55;;;1.30;99.90;;;;;;5069398;28;20028;-73
2022/01/07 17:41:13;;;;;;;0.40;0.40;;;1.20;99.90;;;;;;5071215;28;20109;-73
2022/01/07 17:43:39;;;;;;;1.08;0.95;;;1.20;99.90;;;;;;5054284;28;20100;-75
2022/01/07 17:46:05;;;;;;;3.88;1.55;;;1.10;99.90;;;;;;5053868;28;20025;-74
2022/01/07 17:48:31;;;;;;;0.50;0.50;;;0.90;99.90;;;;;;5052672;28;20025;-74
2022/01/07 17:50:58;;;;;;;5.05;1.50;;;1.00;99.90;;;;;;5052690;28;20028;-75
2022/01/07 17:53:24;;;;;;;1.35;1.05;;;1.10;99.90;;;;;;5052301;28;20075;-75
2022/01/07 17:55:50;;;;;;;0.40;0.40;;;0.90;99.90;;;;;;5052789;28;20098;-74
2022/01/07 17:58:17;;;;;;;1.48;1.15;;;0.70;99.90;;;;;;5053532;28;20465;-74
2022/01/07 18:00:43;;;;;;;2.45;2.28;;;0.60;99.90;;;;;;5053641;28;20104;-74
2022/01/07 18:03:09;;;;;;;0.40;0.40;;;0.70;99.90;;;;;;5053741;28;20035;-74
2022/01/07 18:05:34;;;;;;;0.90;0.90;;;0.70;99.90;;;;;;5053412;28;20017;-74
2022/01/07 18:08:00;;;;;;;0.30;0.30;;;0.70;99.90;;;;;;5053528;28;20096;-74
2022/01/07 18:10:27;;;;;;;0.98;0.77;;;0.70;99.90;;;;;;5052286;28;20029;-74
2022/01/07 18:12:52;;;;;;;0.50;0.50;;;0.70;99.90;;;;;;5053223;28;20103;-75
2022/01/07 18:15:18;;;;;;;0.50;0.50;;;0.80;99.90;;;;;;5053411;28;20109;-74
2022/01/07 18:17:44;;;;;;;0.55;0.55;;;0.70;99.90;;;;;;5051956;28;20036;-74
2022/01/07 18:20:12;;;;;;;0.30;0.30;;;0.80;99.90;;;;;;5053306;28;20025;-74
2022/01/07 18:22:38;;;;;;;0.75;0.75;;;0.70;99.90;;;;;;5052366;28;20507;-74
2022/01/07 18:25:08;;;;;;;0.30;0.30;;;0.70;99.90;;;;;;5051823;28;20021;-74
2022/01/07 18:27:34;;;;;;;0.40;0.40;;;0.60;99.90;;;;;;5053638;28;20025;-74
2022/01/07 18:30:00;;;;;;;0.65;0.65;;;0.60;99.90;;;;;;5051868;28;20111;-74
2022/01/07 18:32:26;;;;;;;1.23;1.13;;;0.50;99.90;;;;;;5051600;28;20057;-74
2022/01/07 18:34:52;;;;;;;0.30;0.30;;;0.40;99.90;;;;;;5053022;28;20052;-74
2022/01/07 18:37:19;;;;;;;0.90;0.70;;;0.40;99.90;;;;;;5052576;28;20530;-74
2022/01/07 18:39:45;;;;;;;1.20;0.98;;;0.50;99.90;;;;;;5051463;28;20568;-74
2022/01/07 18:42:11;;;;;;;0.40;0.40;;;0.50;99.90;;;;;;5052761;28;20017;-73
2022/01/07 18:44:37;;;;;;;0.38;0.38;;;0.70;99.90;;;;;;5052753;28;20483;-71
2022/01/07 18:47:04;;;;;;;1.25;0.98;;;0.70;99.90;;;;;;5052542;28;20075;-72
2022/01/07 18:49:30;;;;;;;0.82;0.82;;;0.80;99.90;;;;;;5051532;28;20135;-72
2022/01/07 18:51:55;;;;;;;1.33;1.23;;;0.80;99.90;;;;;;5052747;28;20568;-72
2022/01/07 18:54:23;;;;;;;2.60;1.05;;;0.60;99.90;;;;;;5052214;28;20028;-72
2022/01/07 18:56:49;;;;;;;0.35;0.35;;;0.70;99.90;;;;;;5052488;28;20029;-71
2022/01/07 18:59:15;;;;;;;0.63;0.63;;;0.70;99.90;;;;;;5052474;28;20032;-72
2022/01/07 19:01:41;;;;;;;2.63;1.67;;;0.60;99.90;;;;;;5051123;28;20017;-71
2022/01/07 19:04:07;;;;;;;3.13;1.52;;;0.60;99.90;;;;;;5052476;28;20025;-71
2022/01/07 19:06:33;;;;;;;0.80;0.80;;;0.60;99.90;;;;;;5051071;28;20038;-71
2022/01/07 19:08:58;;;;;;;0.95;0.80;;;0.70;99.90;;;;;;5052468;28;20377;-72
2022/01/07 19:11:24;;;;;;;3.15;1.67;;;0.70;99.90;;;;;;5052321;28;20017;-72
2022/01/07 19:13:50;;;;;;;0.55;0.55;;;0.60;99.90;;;;;;5052121;28;20021;-72
2022/01/07 19:16:15;;;;;;;1.02;1.02;;;0.60;99.90;;;;;;5048519;28;20029;-71
2022/01/07 19:18:42;;;;;;;3.50;0.93;;;0.40;99.90;;;;;;5050039;28;20017;-71
2022/01/07 19:21:09;;;;;;;0.98;0.98;;;0.50;99.90;;;;;;5037550;28;20041;-72
2022/01/07 19:23:36;;;;;;;1.38;1.17;;;0.40;99.90;;;;;;5031010;28;20100;-74
2022/01/07 19:26:03;;;;;;;1.35;0.90;;;0.60;99.90;;;;;;5050287;28;20025;-74
2022/01/07 19:28:29;;;;;;;4.30;1.70;;;0.50;99.90;;;;;;5050415;28;20021;-74
2022/01/07 19:30:55;;;;;;;0.85;0.63;;;0.50;99.90;;;;;;5050827;28;20025;-74
2022/01/07 19:33:21;;;;;;;1.35;0.95;;;0.30;99.90;;;;;;5042253;28;20388;-74
2022/01/07 19:35:47;;;;;;;2.00;1.05;;;0.30;99.90;;;;;;5031767;28;20357;-74
2022/01/07 19:38:13;;;;;;;1.25;1.17;;;0.20;99.90;;;;;;5031960;28;20439;-74
2022/01/07 19:40:39;;;;;;;2.08;1.77;;;0.10;99.90;;;;;;5032089;28;20026;-74
2022/01/07 19:43:07;;;;;;;1.30;1.20;;;0.10;99.90;;;;;;5032014;28;20017;-74
2022/01/07 19:45:35;;;;;;;2.22;1.83;;;0.10;99.90;;;;;;5030401;28;20106;-74
2022/01/07 19:48:05;;;;;;;2.10;1.90;;;0.00;99.90;;;;;;5014249;28;20025;-74
2022/01/07 19:50:31;;;;;;;0.55;0.55;;;-0.10;99.90;;;;;;5042164;28;20491;-74
2022/01/07 19:52:57;;;;;;;2.83;2.05;;;-0.10;99.90;;;;;;5051586;28;20388;-74
2022/01/07 19:55:23;;;;;;;1.52;1.40;;;0.00;99.90;;;;;;5050557;28;20029;-74
2022/01/07 19:57:48;;;;;;;1.60;0.95;;;0.00;99.90;;;;;;5051611;28;20028;-74
2022/01/07 20:00:15;;;;;;;2.67;1.65;;;0.00;99.90;;;;;;5050269;28;20098;-74
2022/01/07 20:02:42;;;;;;;0.77;0.73;;;0.00;99.90;;;;;;5050406;28;20029;-74
2022/01/07 20:05:09;;;;;;;1.23;0.95;;;0.00;99.90;;;;;;5051553;28;20048;-74
2022/01/07 20:07:36;;;;;;;0.70;0.70;;;0.10;99.90;;;;;;5051371;28;20025;-74
2022/01/07 20:10:04;;;;;;;0.52;0.52;;;0.20;99.90;;;;;;5051559;28;20029;-74
2022/01/07 20:12:30;;;;;;;1.75;1.33;;;0.20;99.90;;;;;;5033647;28;20071;-74
2022/01/07 20:14:56;;;;;;;0.73;0.73;;;0.20;99.90;;;;;;5050404;28;20311;-74
2022/01/07 20:17:21;;;;;;;1.30;1.17;;;0.20;99.90;;;;;;5051450;28;20032;-74
2022/01/07 20:19:47;;;;;;;2.05;1.02;;;0.20;99.90;;;;;;5033409;28;20494;-74
2022/01/07 20:22:13;;;;;;;0.50;0.50;;;0.30;99.90;;;;;;5051240;28;20469;-74
2022/01/07 20:24:39;;;;;;;0.93;0.88;;;0.30;99.90;;;;;;5041101;28;20030;-74
2022/01/07 20:27:05;;;;;;;1.38;0.98;;;0.30;99.90;;;;;;5030233;28;20026;-74
2022/01/07 20:29:30;;;;;;;0.85;0.85;;;0.40;99.90;;;;;;5031371;28;20555;-74
2022/01/07 20:31:56;;;;;;;2.20;1.30;;;0.30;99.90;;;;;;5031293;28;20446;-74
2022/01/07 20:34:24;;;;;;;1.42;1.02;;;0.40;99.90;;;;;;5031344;28;20067;-74
2022/01/07 20:36:50;;;;;;;1.35;1.25;;;0.40;99.90;;;;;;5030954;28;20026;-75
2022/01/07 20:39:17;;;;;;;1.45;0.82;;;0.40;99.90;;;;;;5013429;28;20378;-73
2022/01/07 20:41:42;;;;;;;0.50;0.47;;;0.40;99.90;;;;;;5029935;28;20064;-74
2022/01/07 20:44:11;;;;;;;1.02;0.90;;;0.50;99.90;;;;;;5031333;28;20104;-75
2022/01/07 20:46:39;;;;;;;0.63;0.60;;;0.40;99.90;;;;;;5031173;28;20026;-74
2022/01/07 20:49:06;;;;;;;0.30;0.30;;;0.40;99.90;;;;;;5033373;28;20481;-75
2022/01/07 20:51:32;;;;;;;0.40;0.40;;;0.50;99.90;;;;;;5035018;28;20022;-75
2022/01/07 20:53:59;;;;;;;0.55;0.55;;;0.50;99.90;;;;;;5035046;28;20028;-74
2022/01/07 20:56:24;;;;;;;0.70;0.70;;;0.60;99.90;;;;;;5034882;28;20435;-75
2022/01/07 20:58:50;;;;;;;1.35;1.25;;;0.50;99.90;;;;;;5034935;28;20021;-75
2022/01/07 21:01:16;;;;;;;0.30;0.30;;;0.60;99.90;;;;;;5035066;28;20025;-74
2022/01/07 21:03:43;;;;;;;0.43;0.43;;;0.70;99.90;;;;;;5034804;28;20049;-74
2022/01/07 21:06:16;;;;;;;3.00;1.95;;;0.80;99.90;;;;;;5034681;28;20025;-74
2022/01/07 21:08:43;;;;;;;0.52;0.52;;;0.80;99.90;;;;;;5033608;28;20071;-74
2022/01/07 21:11:10;;;;;;;0.38;0.38;;;0.80;99.90;;;;;;5034697;28;20021;-75
2022/01/07 21:13:36;;;;;;;0.50;0.50;;;0.80;99.90;;;;;;5033838;28;20026;-74
2022/01/07 21:16:02;;;;;;;0.40;0.40;;;0.80;99.90;;;;;;5044251;28;20067;-74
2022/01/07 21:18:29;;;;;;;0.50;0.50;;;0.70;99.90;;;;;;5043944;28;20443;-74
2022/01/07 21:20:55;;;;;;;0.60;0.60;;;0.70;99.90;;;;;;5033087;28;20033;-74
2022/01/07 21:23:21;;;;;;;0.55;0.55;;;0.70;99.90;;;;;;5049555;28;20142;-74
2022/01/07 21:25:46;;;;;;;0.30;0.30;;;0.70;99.90;;;;;;5052958;28;20025;-74
2022/01/07 21:28:13;;;;;;;0.50;0.50;;;0.80;99.90;;;;;;5054146;28;20521;-74
2022/01/07 21:30:39;;;;;;;0.40;0.40;;;0.80;99.90;;;;;;5031274;28;20059;-74
2022/01/07 21:33:04;;;;;;;0.60;0.60;;;0.80;99.90;;;;;;5034374;28;20037;-74
2022/01/07 21:35:32;;;;;;;0.45;0.45;;;0.90;99.90;;;;;;5034183;28;20040;-74
2022/01/07 21:37:59;;;;;;;0.60;0.60;;;0.80;99.90;;;;;;5033012;28;20500;-74
2022/01/07 21:40:26;;;;;;;0.40;0.40;;;0.90;99.90;;;;;;5032915;28;20113;-74
2022/01/07 21:42:54;;;;;;;0.40;0.40;;;0.90;99.90;;;;;;5033992;28;20025;-74
2022/01/07 21:45:21;;;;;;;0.30;0.30;;;0.90;99.90;;;;;;5032734;28;20028;-74
2022/01/07 21:47:47;;;;;;;0.38;0.38;;;0.90;99.90;;;;;;5038093;28;20100;-74
2022/01/07 21:50:14;;;;;;;1.15;1.13;;;0.80;99.90;;;;;;5053973;28;20108;-74
2022/01/07 21:52:40;;;;;;;0.65;0.65;;;0.90;99.90;;;;;;5053790;28;20425;-74
2022/01/07 21:55:09;;;;;;;0.40;0.40;;;0.90;99.90;;;;;;5052575;28;20048;-74
2022/01/07 21:57:34;;;;;;;0.95;0.93;;;1.10;99.90;;;;;;5053548;28;20068;-74
2022/01/07 22:00:00;;;;;;;0.73;0.73;;;1.10;99.90;;;;;;5052466;28;20065;-74
2022/01/07 22:02:27;;;;;;;0.30;0.30;;;1.00;99.90;;;;;;5052222;28;20048;-74
2022/01/07 22:04:53;;;;;;;0.77;0.77;;;1.10;99.90;;;;;;5035944;28;20052;-74
2022/01/07 22:07:19;;;;;;;0.50;0.50;;;1.10;99.90;;;;;;5053644;28;20048;-74
2022/01/07 22:09:45;;;;;;;0.50;0.50;;;1.10;99.90;;;;;;5053729;28;20396;-74
2022/01/07 22:12:12;;;;;;;0.30;0.30;;;1.10;99.90;;;;;;5052320;28;20025;-74
2022/01/07 22:14:39;;;;;;;0.82;0.80;;;1.10;99.90;;;;;;5052958;28;20104;-74
2022/01/07 22:17:05;;;;;;;0.90;0.90;;;1.10;99.90;;;;;;5052427;28;20029;-73
2022/01/07 22:19:32;;;;;;;1.30;1.10;;;1.00;99.90;;;;;;5052205;28;20032;-75
2022/01/07 22:21:59;;;;;;;0.30;0.30;;;1.00;99.90;;;;;;5052001;28;20036;-74
2022/01/07 22:24:25;;;;;;;0.30;0.30;;;1.10;99.90;;;;;;5053444;28;20017;-74
2022/01/07 22:26:52;;;;;;;0.30;0.30;;;1.10;99.90;;;;;;5053134;28;20025;-74
2022/01/07 22:29:18;;;;;;;0.30;0.30;;;1.30;99.90;;;;;;5053144;28;20029;-75
2022/01/07 22:31:45;;;;;;;0.30;0.30;;;1.40;99.90;;;;;;5053107;28;20032;-74
2022/01/07 22:34:11;;;;;;;0.30;0.30;;;1.40;99.90;;;;;;5053281;28;20022;-73
2022/01/07 22:36:38;;;;;;;0.40;0.38;;;1.40;99.90;;;;;;5052991;28;20294;-74
2022/01/07 22:39:05;;;;;;;0.50;0.50;;;1.20;99.90;;;;;;5053074;28;20473;-74
2022/01/07 22:41:31;;;;;;;0.32;0.32;;;1.20;99.90;;;;;;5052910;28;20031;-74
2022/01/07 22:43:57;;;;;;;1.05;0.95;;;1.30;99.90;;;;;;5052985;28;20372;-74
2022/01/07 22:46:22;;;;;;;0.50;0.50;;;1.30;99.90;;;;;;5052878;28;20123;-74
2022/01/07 22:48:48;;;;;;;0.40;0.40;;;1.20;99.90;;;;;;5052762;28;20056;-74
2022/01/07 22:51:15;;;;;;;0.30;0.30;;;1.20;99.90;;;;;;5052886;28;20304;-74
2022/01/07 22:53:44;;;;;;;0.40;0.40;;;1.20;99.90;;;;;;5052899;28;20025;-74
2022/01/07 22:56:10;;;;;;;0.20;0.20;;;1.30;99.90;;;;;;5052702;28;20434;-74
2022/01/07 22:58:36;;;;;;;0.30;0.30;;;1.40;99.90;;;;;;5052722;28;20025;-74
2022/01/07 23:01:03;;;;;;;0.30;0.30;;;1.50;99.90;;;;;;5051304;28;20033;-74
2022/01/07 23:03:28;;;;;;;0.40;0.40;;;1.50;99.90;;;;;;5052558;28;20506;-74
2022/01/07 23:05:54;;;;;;;0.32;0.32;;;1.40;99.90;;;;;;5052510;28;20083;-74
2022/01/07 23:08:20;;;;;;;1.25;1.25;;;1.50;99.90;;;;;;5052524;28;20083;-74
2022/01/07 23:10:47;;;;;;;0.40;0.40;;;1.50;99.90;;;;;;5052047;28;20028;-74
2022/01/07 23:13:13;;;;;;;0.30;0.30;;;1.50;99.90;;;;;;5051476;28;20025;-75
2022/01/07 23:15:40;;;;;;;0.30;0.30;;;1.60;99.90;;;;;;5052242;28;20021;-74
2022/01/07 23:18:09;;;;;;;0.63;0.63;;;1.50;99.90;;;;;;5051140;28;20025;-75
2022/01/07 23:20:36;;;;;;;0.30;0.30;;;1.50;99.90;;;;;;5052412;28;20387;-73
2022/01/07 23:23:03;;;;;;;0.30;0.30;;;1.50;99.90;;;;;;5036229;28;20022;-74
2022/01/07 23:25:29;;;;;;;0.30;0.30;;;1.50;99.90;;;;;;5032297;28;20473;-74
2022/01/07 23:27:55;;;;;;;0.30;0.30;;;1.70;99.90;;;;;;5031133;28;20079;-75
2022/01/07 23:30:22;;;;;;;0.40;0.40;;;1.80;99.90;;;;;;5032337;28;20499;-74
2022/01/07 23:32:49;;;;;;;0.50;0.50;;;1.90;99.90;;;;;;5030895;28;20397;-74
2022/01/07 23:35:15;;;;;;;0.30;0.30;;;1.70;99.90;;;;;;5032400;28;20373;-74
2022/01/07 23:37:41;;;;;;;0.25;0.25;;;1.70;99.90;;;;;;5031034;28;20160;-74
2022/01/07 23:40:08;;;;;;;0.40;0.40;;;1.80;99.90;;;;;;5030952;28;20124;-74
2022/01/07 23:42:36;;;;;;;0.85;0.85;;;1.70;99.90;;;;;;5030981;28;20034;-74
2022/01/07 23:45:04;;;;;;;0.40;0.40;;;1.70;99.90;;;;;;5032208;28;20025;-74
2022/01/07 23:47:31;;;;;;;0.40;0.40;;;1.70;99.90;;;;;;5031964;28;20389;-74
2022/01/07 23:49:58;;;;;;;0.30;0.30;;;1.70;99.90;;;;;;5032154;28;20040;-74
2022/01/07 23:52:28;;;;;;;0.30;0.30;;;1.80;99.90;;;;;;5032097;28;20481;-74
2022/01/07 23:54:54;;;;;;;0.32;0.32;;;2.00;99.90;;;;;;5032025;28;20075;-74
2022/01/07 23:57:20;;;;;;;0.30;0.30;;;2.00;99.90;;;;;;5031974;28;20021;-74
2022/01/07 23:59:45;;;;;;;0.30;0.30;;;1.80;99.90;;;;;;5030755;28;20396;-75
